Time;durP1;ratioP1;P1;durP2;ratioP2;P2;SDS_P1;SDS_P2;PMS_P1;PMS_P2;Temp;Humidity;BMP_temperature;BMP_pressure;BME280_temperature;BME280_humidity;BME280_pressure;Samples;Min_cycle;Max_cycle;Signal;HPM_P1;HPM_P2
2022/01/20 00:04:12;;;;;;;6.50;3.92;;;;;;;2.60;100.00;99472.66;5035164;28;20021;-72
2022/01/20 00:09:54;;;;;;;6.85;3.20;;;;;;;2.46;100.00;99446.28;5052517;28;20501;-74
2022/01/20 00:23:14;;;;;;;7.32;3.58;;;;;;;2.61;100.00;99463.63;5061485;28;20044;-74
2022/01/20 00:28:16;;;;;;;6.55;4.03;;;;;;;2.52;100.00;99471.66;5053612;28;20025;-71
2022/01/20 00:38:24;;;;;;;3.90;2.70;;;;;;;2.51;100.00;99470.78;5062183;28;20044;-71
2022/01/20 00:40:50;;;;;;;6.47;2.85;;;;;;;2.35;100.00;99473.13;5056856;28;20021;-73
2022/01/20 00:43:15;;;;;;;5.72;3.42;;;;;;;2.38;100.00;99475.50;5067303;28;20389;-71
2022/01/20 00:45:41;;;;;;;4.93;2.92;;;;;;;2.24;100.00;99450.03;5054977;28;20120;-72
2022/01/20 00:48:06;;;;;;;4.53;2.63;;;;;;;2.20;100.00;99448.59;5051010;28;20391;-72
2022/01/20 00:50:34;;;;;;;5.10;2.42;;;;;;;2.44;100.00;99490.16;5054203;28;20105;-72
2022/01/20 00:53:00;;;;;;;5.20;2.80;;;;;;;2.25;100.00;99478.41;5048421;28;20036;-72
2022/01/20 00:55:25;;;;;;;5.95;3.25;;;;;;;2.25;100.00;99494.41;5055378;28;20025;-73
2022/01/20 00:57:50;;;;;;;3.88;2.35;;;;;;;2.17;100.00;99478.22;5051981;28;20036;-72
2022/01/20 01:00:16;;;;;;;4.22;2.55;;;;;;;2.27;100.00;99499.63;5047870;28;20036;-73
2022/01/20 01:02:41;;;;;;;6.30;3.05;;;;;;;2.04;100.00;99467.75;5054006;28;20032;-71
2022/01/20 01:05:09;;;;;;;3.95;2.25;;;;;;;2.11;100.00;99492.13;5053164;28;20568;-73
2022/01/20 01:10:09;;;;;;;5.82;2.38;;;;;;;2.14;100.00;99497.19;5053897;28;20120;-73
2022/01/20 01:12:54;;;;;;;4.68;2.40;;;;;;;2.12;100.00;99496.47;5049851;28;20522;-72
2022/01/20 01:15:27;;;;;;;4.35;2.25;;;;;;;2.06;100.00;99481.81;5043034;28;20077;-73
2022/01/20 01:21:09;;;;;;;3.90;2.35;;;;;;;2.27;100.00;99511.16;5030181;28;20056;-72
2022/01/20 01:23:36;;;;;;;4.00;2.10;;;;;;;2.33;100.00;99507.09;5043149;28;20188;-73
2022/01/20 01:26:04;;;;;;;4.32;2.10;;;;;;;2.37;100.00;99511.22;5049629;28;20033;-72
2022/01/20 01:28:31;;;;;;;3.53;2.05;;;;;;;2.27;100.00;99516.50;5052015;28;20133;-73
2022/01/20 01:33:33;;;;;;;3.10;1.95;;;;;;;2.13;100.00;99488.34;5053561;28;20070;-71
2022/01/20 01:35:59;;;;;;;2.83;1.77;;;;;;;2.16;100.00;99484.56;5049131;28;20471;-71
2022/01/20 01:38:37;;;;;;;2.90;1.67;;;;;;;2.17;100.00;99503.13;5054021;28;20056;-72
2022/01/20 01:41:05;;;;;;;2.95;1.70;;;;;;;2.20;100.00;99496.66;5038889;28;20074;-72
2022/01/20 01:43:32;;;;;;;3.92;2.33;;;;;;;2.26;100.00;99504.13;5049482;28;20514;-72
2022/01/20 01:46:00;;;;;;;3.05;1.95;;;;;;;2.00;100.00;99461.03;5047015;28;20029;-71
2022/01/20 01:48:26;;;;;;;3.65;1.83;;;;;;;2.01;100.00;99457.34;5033703;28;20025;-72
2022/01/20 01:50:52;;;;;;;3.88;1.75;;;;;;;2.25;100.00;99498.91;5040877;28;20029;-72
2022/01/20 01:53:18;;;;;;;5.18;2.20;;;;;;;2.12;100.00;99478.66;5067450;28;20052;-72
2022/01/20 01:55:43;;;;;;;2.75;1.90;;;;;;;1.91;100.00;99452.00;5068868;28;20130;-72
2022/01/20 01:58:08;;;;;;;3.15;1.90;;;;;;;2.18;100.00;99493.28;5051764;28;20860;-72
2022/01/20 02:00:35;;;;;;;3.92;2.25;;;;;;;2.11;100.00;99497.44;5050532;28;20104;-72
2022/01/20 02:03:00;;;;;;;3.65;1.90;;;;;;;2.10;100.00;99479.75;5051857;28;20402;-73
2022/01/20 02:05:27;;;;;;;4.03;2.35;;;;;;;2.24;100.00;99500.75;5047047;28;20041;-72
2022/01/20 02:08:27;;;;;;;4.72;1.88;;;;;;;2.19;100.00;99471.78;5050231;28;20032;-72
2022/01/20 02:19:11;;;;;;;3.92;2.28;;;;;;;2.14;100.00;99460.66;5050283;28;20413;-72
2022/01/20 02:21:56;;;;;;;4.00;2.28;;;;;;;2.23;100.00;99477.72;5052500;28;20029;-72
2022/01/20 02:24:22;;;;;;;3.40;2.10;;;;;;;2.18;100.00;99472.78;5051292;28;20029;-74
2022/01/20 02:26:48;;;;;;;3.28;2.30;;;;;;;2.02;100.00;99440.38;5052527;28;20056;-73
2022/01/20 02:29:14;;;;;;;4.03;1.92;;;;;;;2.16;100.00;99473.88;5036473;28;20059;-72
2022/01/20 02:31:39;;;;;;;3.38;2.10;;;;;;;1.91;100.00;99437.78;5051844;28;20433;-72
2022/01/20 02:34:08;;;;;;;3.42;2.10;;;;;;;1.95;100.00;99441.88;5052118;28;20029;-73
2022/01/20 02:36:35;;;;;;;4.13;2.40;;;;;;;2.00;100.00;99439.66;5042896;28;20033;-73
2022/01/20 02:39:09;;;;;;;3.88;2.30;;;;;;;1.95;100.00;99445.41;5048714;28;20082;-73
2022/01/20 02:47:15;;;;;;;3.88;2.22;;;;;;;2.18;100.00;99471.94;5042680;28;20119;-71
2022/01/20 02:49:40;;;;;;;4.00;2.38;;;;;;;2.19;100.00;99476.28;5051239;28;20727;-71
2022/01/20 02:52:06;;;;;;;3.60;2.25;;;;;;;2.23;100.00;99477.72;5042182;28;20025;-73
2022/01/20 02:54:31;;;;;;;3.60;2.35;;;;;;;2.21;100.00;99485.00;5044910;28;20020;-73
2022/01/20 02:56:57;;;;;;;4.43;2.65;;;;;;;2.25;100.00;99478.41;5052363;28;20024;-73
2022/01/20 02:59:22;;;;;;;4.07;2.38;;;;;;;1.99;100.00;99435.28;5043253;28;20029;-73
2022/01/20 03:01:47;;;;;;;4.55;2.40;;;;;;;2.22;100.00;99478.69;5053317;28;20037;-72
2022/01/20 03:04:13;;;;;;;5.55;2.83;;;;;;;2.16;100.00;99457.88;5054083;28;20055;-71
2022/01/20 03:06:39;;;;;;;4.35;2.70;;;;;;;2.10;100.00;99445.06;5050423;28;20020;-72
2022/01/20 03:09:04;;;;;;;5.35;3.05;;;;;;;2.22;100.00;99467.16;5040368;28;20033;-72
2022/01/20 03:11:30;;;;;;;4.85;3.03;;;;;;;2.11;100.00;99449.41;5036433;28;20052;-72
2022/01/20 03:13:55;;;;;;;3.70;2.45;;;;;;;2.20;100.00;99453.94;5052029;28;20118;-71
2022/01/20 03:16:21;;;;;;;4.70;2.85;;;;;;;2.21;100.00;99477.00;5049739;28;20029;-72
2022/01/20 03:18:46;;;;;;;4.20;2.72;;;;;;;2.37;100.00;99485.34;5051163;28;20471;-72
2022/01/20 03:21:11;;;;;;;5.80;2.88;;;;;;;2.28;100.00;99470.16;5051327;28;20036;-73
2022/01/20 03:23:36;;;;;;;4.65;2.53;;;;;;;2.37;100.00;99498.69;5051543;28;20029;-72
2022/01/20 03:26:02;;;;;;;3.58;2.38;;;;;;;2.23;100.00;99464.38;5050839;28;20073;-72
2022/01/20 03:28:28;;;;;;;4.35;2.72;;;;;;;2.28;100.00;99469.28;5050932;28;20025;-74
2022/01/20 03:30:53;;;;;;;4.18;2.58;;;;;;;2.16;100.00;99453.38;5049232;28;20035;-73
2022/01/20 03:33:19;;;;;;;4.93;3.17;;;;;;;2.20;100.00;99456.59;5050871;28;20036;-74
2022/01/20 03:35:44;;;;;;;5.18;2.85;;;;;;;2.38;100.00;99495.06;5049562;28;20175;-72
2022/01/20 03:38:10;;;;;;;3.80;2.45;;;;;;;2.37;100.00;99473.84;5050887;28;20633;-72
2022/01/20 03:40:36;;;;;;;3.65;2.40;;;;;;;2.21;100.00;99466.31;5048580;28;20029;-72
2022/01/20 03:43:01;;;;;;;5.00;2.85;;;;;;;2.12;100.00;99446.63;5044560;28;20039;-73
2022/01/20 03:45:28;;;;;;;2.90;2.28;;;;;;;2.17;100.00;99465.75;5051025;28;20397;-73
2022/01/20 03:47:58;;;;;;;5.78;2.28;;;;;;;2.26;100.00;99463.25;5050222;28;20017;-73
2022/01/20 03:53:08;;;;;;;3.83;2.30;;;;;;;2.35;100.00;99481.97;5050544;28;20078;-72
2022/01/20 03:55:33;;;;;;;4.10;2.42;;;;;;;2.24;100.00;99462.53;5043578;28;20099;-72
2022/01/20 03:57:59;;;;;;;3.58;2.20;;;;;;;2.12;100.00;99440.41;5050788;28;20162;-72
2022/01/20 04:00:24;;;;;;;5.90;2.50;;;;;;;2.30;100.00;99486.84;5060402;28;20029;-71
2022/01/20 04:02:49;;;;;;;3.67;2.40;;;;;;;2.37;100.00;99481.84;5067904;28;20025;-72
2022/01/20 04:05:15;;;;;;;4.57;2.63;;;;;;;2.07;100.00;99455.97;5065729;28;20259;-71
2022/01/20 04:07:40;;;;;;;4.90;3.00;;;;;;;2.19;100.00;99469.09;5059737;28;20075;-72
2022/01/20 04:10:06;;;;;;;4.32;2.50;;;;;;;2.29;100.00;99490.53;5036628;28;20538;-72
2022/01/20 04:12:31;;;;;;;4.50;2.85;;;;;;;2.31;100.00;99490.41;5030655;28;20604;-72
2022/01/20 04:15:00;;;;;;;5.45;2.90;;;;;;;2.22;100.00;99499.19;5029459;28;20104;-74
2022/01/20 04:17:27;;;;;;;4.68;2.72;;;;;;;2.17;100.00;99486.22;5053714;28;20028;-72
2022/01/20 04:19:52;;;;;;;4.80;2.78;;;;;;;2.21;100.00;99481.50;5049656;28;20036;-72
2022/01/20 04:22:18;;;;;;;4.90;2.80;;;;;;;2.17;100.00;99459.53;5046205;28;20040;-72
2022/01/20 04:24:43;;;;;;;7.55;2.90;;;;;;;2.04;100.00;99453.59;5039265;28;20118;-71
2022/01/20 04:27:08;;;;;;;5.68;3.20;;;;;;;2.32;100.00;99489.41;5048592;28;20431;-71
2022/01/20 04:29:34;;;;;;;5.75;3.03;;;;;;;2.21;100.00;99465.47;5031109;28;20032;-77
2022/01/20 04:31:59;;;;;;;5.95;3.30;;;;;;;2.23;100.00;99469.72;5044416;28;20035;-78
2022/01/20 04:34:25;;;;;;;8.23;3.35;;;;;;;2.30;100.00;99486.03;5044907;28;20603;-75
2022/01/20 04:36:53;;;;;;;6.07;3.22;;;;;;;2.16;100.00;99473.88;5042012;28;20056;-76
2022/01/20 04:39:22;;;;;;;6.65;2.70;;;;;;;2.12;100.00;99465.31;5038342;28;20033;-74
2022/01/20 04:41:49;;;;;;;;;;;;;;;2.20;100.00;99485.97;5049553;28;20017;-74
2022/01/20 04:44:32;;;;;;;8.02;3.30;;;;;;;2.17;100.00;99481.75;5049530;28;19959;-78
2022/01/20 04:47:20;;;;;;;8.27;3.60;;;;;;;2.08;100.00;99450.53;5038662;28;20083;-75
2022/01/20 04:57:57;;;;;;;5.72;3.17;;;;;;;2.25;100.00;99467.72;5033719;28;20087;-73
2022/01/20 05:00:23;;;;;;;7.95;3.72;;;;;;;2.22;100.00;99489.34;5045410;28;20036;-72
2022/01/20 05:02:48;;;;;;;4.75;3.20;;;;;;;2.18;100.00;99464.75;5039861;28;20037;-74
2022/01/20 05:05:14;;;;;;;5.88;3.35;;;;;;;2.27;100.00;99479.13;5035648;28;20057;-77
2022/01/20 05:07:39;;;;;;;7.13;2.95;;;;;;;2.20;100.00;99469.94;5048896;28;20030;-74
2022/01/20 05:10:10;;;;;;;6.45;2.72;;;;;;;2.24;100.00;99465.19;5040209;28;20033;-77
2022/01/20 05:13:02;;;;;;;4.15;2.40;;;;;;;2.18;100.00;99471.94;5045836;28;20021;-79
2022/01/20 05:15:25;;;;;;;4.00;2.17;;;;;;;2.08;100.00;99455.03;5050804;28;20078;-75
2022/01/20 05:17:52;;;;;;;4.78;2.28;;;;;;;2.00;100.00;99454.84;5048401;28;20183;-73
2022/01/20 05:20:18;;;;;;;3.47;2.45;;;;;;;2.03;100.00;99459.91;5050044;28;20052;-75
2022/01/20 05:22:53;;;;;;;4.20;2.55;;;;;;;2.23;100.00;99490.19;5045846;28;20088;-81
2022/01/20 05:25:18;;;;;;;4.65;2.47;;;;;;;2.23;100.00;99490.19;5050245;28;20577;-74
2022/01/20 05:27:44;;;;;;;6.60;2.50;;;;;;;2.01;100.00;99464.53;5047275;28;20035;-74
2022/01/20 05:30:12;;;;;;;4.50;3.00;;;;;;;2.14;100.00;99494.50;5048476;28;20402;-75
2022/01/20 05:32:37;;;;;;;6.70;3.35;;;;;;;1.97;100.00;99475.47;5044546;28;20026;-75
2022/01/20 05:35:03;;;;;;;5.97;3.10;;;;;;;2.09;100.00;99489.56;5042290;28;20026;-76
2022/01/20 05:37:28;;;;;;;5.30;3.08;;;;;;;2.12;100.00;99494.66;5051251;28;20028;-75
2022/01/20 05:39:53;;;;;;;6.82;3.65;;;;;;;1.98;100.00;99492.31;5037810;28;20506;-77
2022/01/20 05:42:18;;;;;;;5.47;3.28;;;;;;;2.04;100.00;99491.78;5046162;28;20030;-77
2022/01/20 05:44:45;;;;;;;6.80;3.38;;;;;;;2.14;100.00;99505.19;5042551;28;20399;-75
2022/01/20 05:47:12;;;;;;;5.53;2.97;;;;;;;2.25;100.00;99506.94;5051261;28;20082;-75
2022/01/20 05:49:37;;;;;;;5.95;3.63;;;;;;;2.04;100.00;99473.09;5041520;28;20114;-76
2022/01/20 05:52:03;;;;;;;6.57;3.08;;;;;;;2.09;100.00;99483.38;5048571;28;20053;-76
2022/01/20 05:54:29;;;;;;;6.30;3.60;;;;;;;2.12;100.00;99494.66;5051330;28;20040;-76
2022/01/20 05:56:54;;;;;;;7.30;3.53;;;;;;;2.19;100.00;99489.63;5051237;28;20029;-75
2022/01/20 05:59:20;;;;;;;5.97;3.63;;;;;;;2.15;100.00;99493.56;5050877;28;20071;-75
2022/01/20 06:01:52;;;;;;;6.32;3.45;;;;;;;1.98;100.00;99477.16;5044042;28;20033;-75
2022/01/20 06:04:17;;;;;;;5.20;3.42;;;;;;;2.04;100.00;99490.94;5042840;28;20467;-73
2022/01/20 06:06:44;;;;;;;8.05;3.13;;;;;;;2.03;100.00;99492.78;5049314;28;20075;-75
2022/01/20 06:09:09;;;;;;;4.88;3.13;;;;;;;2.13;100.00;99488.34;5042122;28;20445;-75
2022/01/20 06:11:35;;;;;;;5.75;3.42;;;;;;;2.05;100.00;99471.31;5039761;28;20112;-74
2022/01/20 06:14:01;;;;;;;7.72;3.58;;;;;;;2.07;100.00;99486.22;5048804;28;20029;-73
2022/01/20 06:16:27;;;;;;;5.90;3.28;;;;;;;2.15;100.00;99506.91;5053040;28;20030;-73
2022/01/20 06:18:52;;;;;;;7.30;3.35;;;;;;;2.12;100.00;99502.69;5053986;28;20036;-73
2022/01/20 06:21:18;;;;;;;7.07;3.38;;;;;;;2.00;100.00;99463.69;5052816;28;20068;-72
2022/01/20 06:23:43;;;;;;;7.90;3.65;;;;;;;2.08;100.00;99476.38;5044891;28;20037;-72
2022/01/20 06:26:09;;;;;;;7.00;3.47;;;;;;;2.04;100.00;99454.41;5036015;28;20036;-72
2022/01/20 06:28:37;;;;;;;7.90;3.42;;;;;;;2.26;100.00;99506.81;5044844;28;20120;-72
2022/01/20 06:31:02;;;;;;;9.90;3.83;;;;;;;2.19;100.00;99508.31;5036075;28;20041;-75
2022/01/20 06:33:28;;;;;;;7.25;3.55;;;;;;;2.16;100.00;99500.56;5055123;28;20030;-76
2022/01/20 06:35:54;;;;;;;7.45;4.55;;;;;;;2.12;100.00;99500.00;5039086;28;20025;-74
2022/01/20 06:38:19;;;;;;;8.00;3.40;;;;;;;2.18;100.00;99491.44;5037295;28;20029;-74
2022/01/20 06:40:45;;;;;;;8.40;4.22;;;;;;;2.07;100.00;99464.84;5046165;28;20048;-81
2022/01/20 06:43:10;;;;;;;10.95;4.15;;;;;;;2.07;100.00;99459.53;5052173;28;20576;-85
2022/01/20 06:45:36;;;;;;;8.80;4.63;;;;;;;2.22;100.00;99504.53;5052868;28;20051;-82
2022/01/20 06:48:02;;;;;;;7.13;3.90;;;;;;;2.20;100.00;99493.97;5047228;28;20033;-76
2022/01/20 06:50:27;;;;;;;9.85;4.35;;;;;;;2.06;100.00;99484.50;5041701;28;20736;-76
2022/01/20 06:52:54;;;;;;;9.18;4.75;;;;;;;2.09;100.00;99478.88;5045507;28;20029;-75
2022/01/20 06:55:19;;;;;;;10.07;4.18;;;;;;;2.27;100.00;99489.81;5078471;28;20035;-79
2022/01/20 06:57:45;;;;;;;8.07;3.70;;;;;;;2.04;100.00;99472.25;5072121;28;20112;-78
2022/01/20 07:00:15;;;;;;;10.18;5.35;;;;;;;2.10;100.00;99493.94;5055613;28;20025;-82
2022/01/20 07:02:42;;;;;;;8.15;4.70;;;;;;;1.85;100.00;99470.34;5057529;28;20075;-84
2022/01/20 07:05:09;;;;;;;8.32;4.30;;;;;;;1.24;100.00;99378.59;5055151;28;20760;-77
2022/01/20 07:07:35;;;;;;;9.50;4.43;;;;;;;1.78;100.00;99474.50;5050702;28;20017;-81
2022/01/20 07:10:00;;;;;;;9.63;4.75;;;;;;;1.57;100.00;99429.16;5050104;28;20041;-78
2022/01/20 07:12:25;;;;;;;13.77;5.13;;;;;;;1.92;100.00;99490.19;5049615;28;20036;-77
2022/01/20 07:14:51;;;;;;;9.25;4.72;;;;;;;1.84;100.00;99461.50;5066562;28;20079;-75
2022/01/20 07:17:16;;;;;;;9.35;4.47;;;;;;;2.02;100.00;99503.56;5050848;28;20036;-77
2022/01/20 07:19:41;;;;;;;14.90;4.80;;;;;;;1.94;100.00;99490.91;5050802;28;20033;-79
2022/01/20 07:22:07;;;;;;;9.68;5.10;;;;;;;2.13;100.00;99546.22;5044063;28;20029;-76
2022/01/20 07:24:32;;;;;;;15.88;4.70;;;;;;;1.93;100.00;99527.41;5044489;28;20037;-76
2022/01/20 07:26:58;;;;;;;6.85;4.65;;;;;;;2.04;100.00;99531.81;5048044;28;20738;-80
2022/01/20 07:29:25;;;;;;;10.15;4.95;;;;;;;2.16;100.00;99553.97;5061914;28;20029;-70
2022/01/20 07:31:51;;;;;;;7.85;4.18;;;;;;;2.08;100.00;99540.44;5044946;28;20393;-75
2022/01/20 07:34:16;;;;;;;11.50;4.82;;;;;;;1.96;100.00;99539.63;5051057;28;20033;-76
2022/01/20 07:36:42;;;;;;;11.13;4.38;;;;;;;2.07;100.00;99542.25;5052614;28;20028;-78
2022/01/20 07:39:08;;;;;;;9.13;4.13;;;;;;;1.81;100.00;99508.91;5048586;28;20016;-75
2022/01/20 07:41:33;;;;;;;8.52;4.15;;;;;;;2.05;100.00;99554.03;5044109;28;20095;-71
2022/01/20 07:43:58;;;;;;;8.02;4.47;;;;;;;1.95;100.00;99549.47;5042687;28;20097;-72
2022/01/20 07:46:24;;;;;;;8.10;4.53;;;;;;;2.16;100.00;99560.13;5040433;28;20074;-72
2022/01/20 07:48:49;;;;;;;9.95;4.13;;;;;;;1.98;100.00;99546.53;5049593;28;20028;-72
2022/01/20 07:51:15;;;;;;;13.98;6.43;;;;;;;1.97;100.00;99550.19;5041719;28;20111;-74
2022/01/20 07:53:41;;;;;;;11.95;5.60;;;;;;;2.10;100.00;99570.50;5045726;28;20028;-74
2022/01/20 07:56:06;;;;;;;11.85;4.57;;;;;;;2.16;100.00;99594.84;5041216;28;20494;-77
2022/01/20 07:58:35;;;;;;;9.25;4.10;;;;;;;2.14;100.00;99575.44;5051242;28;20035;-77
2022/01/20 08:01:01;;;;;;;12.32;4.45;;;;;;;1.96;100.00;99567.19;5049471;28;20112;-78
2022/01/20 08:03:27;;;;;;;14.27;4.25;;;;;;;2.06;100.00;99561.06;5035496;28;20402;-75
2022/01/20 08:05:52;;;;;;;10.25;4.03;;;;;;;2.16;100.00;99580.66;5049024;28;20070;-73
2022/01/20 08:08:17;;;;;;;8.27;4.80;;;;;;;2.21;100.00;99564.25;5036740;28;20075;-73
2022/01/20 08:10:43;;;;;;;10.93;4.85;;;;;;;2.60;100.00;99594.69;5035374;28;20032;-73
2022/01/20 08:13:08;;;;;;;7.07;3.92;;;;;;;2.54;100.00;99558.69;5038037;28;20033;-74
2022/01/20 08:15:34;;;;;;;8.13;4.10;;;;;;;2.93;100.00;99590.88;5039195;28;20060;-71
2022/01/20 08:18:00;;;;;;;8.65;4.75;;;;;;;2.77;98.67;99572.66;5046445;28;20033;-74
2022/01/20 08:20:26;;;;;;;10.32;4.15;;;;;;;2.62;99.34;99574.88;5035488;28;20022;-72
2022/01/20 08:22:51;;;;;;;8.82;4.55;;;;;;;2.70;99.41;99586.69;5039823;28;20033;-76
2022/01/20 08:25:18;;;;;;;8.68;4.32;;;;;;;2.55;100.00;99589.75;5050634;28;20029;-75
2022/01/20 08:27:46;;;;;;;10.88;4.88;;;;;;;2.59;100.00;99601.00;5046688;28;20130;-72
2022/01/20 08:30:17;;;;;;;10.07;4.80;;;;;;;2.66;100.00;99610.19;5038869;28;20111;-72
2022/01/20 08:32:44;;;;;;;10.27;4.60;;;;;;;2.72;100.00;99614.13;5038038;28;20449;-72
2022/01/20 08:35:11;;;;;;;12.70;4.45;;;;;;;2.67;100.00;99625.22;5036150;28;20024;-75
2022/01/20 08:37:40;;;;;;;10.98;4.63;;;;;;;2.62;100.00;99614.09;5047132;28;20029;-73
2022/01/20 08:40:09;;;;;;;8.50;5.00;;;;;;;2.62;100.00;99614.09;5055858;28;20090;-77
2022/01/20 08:42:35;;;;;;;12.57;5.35;;;;;;;2.73;99.94;99629.22;5036967;28;20518;-72
2022/01/20 08:45:00;;;;;;;11.43;5.60;;;;;;;2.74;100.00;99606.84;5049481;28;20037;-72
2022/01/20 08:47:26;;;;;;;15.35;5.20;;;;;;;2.68;99.97;99589.53;5048419;28;20043;-75
2022/01/20 08:49:52;;;;;;;10.50;4.50;;;;;;;2.26;99.74;99538.00;5044850;28;20036;-73
2022/01/20 08:52:18;;;;;;;11.30;4.82;;;;;;;2.88;100.00;99614.47;5049618;28;20029;-73
2022/01/20 08:54:46;;;;;;;12.18;4.82;;;;;;;2.81;99.33;99616.88;5042650;28;20479;-75
2022/01/20 08:57:12;;;;;;;8.52;4.13;;;;;;;2.72;99.16;99606.13;5037569;28;20035;-74
2022/01/20 08:59:40;;;;;;;11.07;5.32;;;;;;;3.00;99.89;99617.91;5045101;28;20478;-78
2022/01/20 09:02:06;;;;;;;12.85;4.97;;;;;;;2.94;99.09;99597.09;5041140;28;20013;-77
2022/01/20 09:04:32;;;;;;;12.10;4.25;;;;;;;3.10;97.49;99604.59;5042825;28;20086;-79
2022/01/20 09:06:57;;;;;;;9.18;4.25;;;;;;;3.78;93.98;99610.06;5044487;28;20190;-78
2022/01/20 09:09:23;;;;;;;8.82;4.38;;;;;;;3.80;90.40;99573.28;5054039;28;20043;-81
2022/01/20 09:12:04;;;;;;;9.77;4.53;;;;;;;4.14;89.77;99604.00;5048386;28;20473;-76
2022/01/20 09:17:14;;;;;;;7.75;3.88;;;;;;;3.60;93.85;99632.16;5046820;28;20093;-72
2022/01/20 09:19:39;;;;;;;10.68;4.00;;;;;;;3.64;93.49;99641.63;5033237;28;20100;-74
2022/01/20 09:22:05;;;;;;;14.27;4.43;;;;;;;3.45;94.28;99629.03;5036642;28;20066;-70
2022/01/20 09:24:31;;;;;;;14.27;4.80;;;;;;;3.60;93.36;99634.00;5037522;28;20120;-72
2022/01/20 09:26:56;;;;;;;12.50;3.65;;;;;;;3.85;92.58;99632.59;5052725;28;21504;-77
2022/01/20 09:29:21;;;;;;;14.38;4.38;;;;;;;3.52;92.79;99602.59;5036146;28;20040;-76
2022/01/20 09:31:50;;;;;;;16.42;4.60;;;;;;;3.59;92.73;99603.72;5040868;28;20905;-74
2022/01/20 09:34:15;;;;;;;13.55;4.07;;;;;;;3.39;93.14;99593.97;5037081;28;20038;-76
2022/01/20 09:36:42;;;;;;;10.63;3.78;;;;;;;3.87;91.52;99611.91;5055262;28;20045;-70
2022/01/20 09:39:07;;;;;;;14.20;4.22;;;;;;;4.22;89.83;99613.13;5040055;28;20018;-70
2022/01/20 09:41:33;;;;;;;10.77;3.90;;;;;;;4.21;88.27;99600.75;5042733;28;20028;-79
2022/01/20 09:43:58;;;;;;;9.98;3.65;;;;;;;4.00;89.37;99587.53;5042857;28;20060;-76
2022/01/20 09:46:25;;;;;;;11.55;3.35;;;;;;;3.99;88.50;99594.72;5050863;28;20032;-78
2022/01/20 09:48:50;;;;;;;16.10;3.90;;;;;;;4.59;86.51;99591.78;5049514;28;20021;-76
2022/01/20 09:51:16;;;;;;;7.35;3.35;;;;;;;5.70;81.40;99588.09;5048938;28;20039;-76
2022/01/20 09:53:41;;;;;;;14.18;4.10;;;;;;;7.32;75.04;99611.91;5048432;28;20025;-72
2022/01/20 09:56:07;;;;;;;13.23;2.90;;;;;;;6.65;72.83;99599.13;5047716;28;20029;-73
2022/01/20 09:58:32;;;;;;;11.27;2.53;;;;;;;5.81;78.28;99627.28;5050224;28;20675;-74
2022/01/20 10:00:59;;;;;;;10.63;3.30;;;;;;;4.91;81.54;99604.78;5040258;28;20040;-68
2022/01/20 10:03:26;;;;;;;13.18;3.72;;;;;;;4.61;83.64;99619.28;5049726;28;20051;-70
2022/01/20 10:05:53;;;;;;;9.88;3.42;;;;;;;4.76;84.23;99636.59;5040398;28;20029;-70
2022/01/20 10:08:21;;;;;;;9.43;2.80;;;;;;;4.44;85.62;99638.78;5053489;28;20056;-71
2022/01/20 10:11:05;;;;;;;7.82;3.17;;;;;;;4.30;86.03;99645.44;5041919;28;20033;-70
2022/01/20 10:13:34;;;;;;;9.82;3.45;;;;;;;4.59;85.50;99615.91;5042305;28;20029;-70
2022/01/20 10:16:01;;;;;;;10.55;3.30;;;;;;;4.77;84.47;99632.94;5041307;28;20434;-70
2022/01/20 10:18:27;;;;;;;8.38;3.00;;;;;;;4.70;84.31;99601.50;5043297;28;20037;-70
2022/01/20 10:20:55;;;;;;;9.40;2.92;;;;;;;5.31;82.12;99640.34;5038540;28;20048;-70
2022/01/20 10:23:36;;;;;;;8.88;3.03;;;;;;;5.52;80.40;99645.44;5045980;28;20078;-70
2022/01/20 10:26:09;;;;;;;13.20;3.38;;;;;;;5.42;79.86;99638.31;5049630;28;20025;-70
2022/01/20 10:28:54;;;;;;;10.77;3.65;;;;;;;4.84;81.26;99635.84;5050774;28;20112;-70
2022/01/20 10:31:57;;;;;;;9.45;2.88;;;;;;;4.46;82.58;99626.94;5037607;28;20041;-70
2022/01/20 10:34:30;;;;;;;7.97;2.88;;;;;;;4.08;85.37;99620.63;5042234;28;20033;-71
2022/01/20 10:36:59;;;;;;;9.68;2.95;;;;;;;4.11;85.14;99609.66;5038290;28;20590;-71
2022/01/20 10:39:37;;;;;;;8.35;3.00;;;;;;;4.10;85.68;99618.66;5044912;28;20041;-72
2022/01/20 10:42:08;;;;;;;9.70;3.13;;;;;;;4.16;86.29;99634.16;5029667;28;20040;-71
2022/01/20 10:44:44;;;;;;;12.20;3.60;;;;;;;4.15;87.78;99629.78;5048298;28;20352;-72
2022/01/20 10:47:25;;;;;;;7.43;3.13;;;;;;;4.08;86.78;99623.31;5039357;28;20453;-71
2022/01/20 10:49:51;;;;;;;10.32;3.38;;;;;;;4.10;86.31;99636.56;5047077;28;20040;-73
2022/01/20 10:52:19;;;;;;;13.27;4.80;;;;;;;4.05;85.52;99636.13;5037786;28;20117;-72
2022/01/20 10:54:49;;;;;;;11.85;4.63;;;;;;;4.14;86.31;99636.16;5037536;28;20458;-72
2022/01/20 10:57:16;;;;;;;10.27;3.17;;;;;;;4.11;87.61;99641.78;5037505;28;20037;-70
2022/01/20 10:59:53;;;;;;;8.90;3.60;;;;;;;4.04;88.38;99629.09;5044079;28;20124;-71
2022/01/20 11:02:25;;;;;;;16.45;3.95;;;;;;;3.99;89.73;99624.16;5047783;28;20060;-74
2022/01/20 11:04:51;;;;;;;13.10;3.45;;;;;;;4.17;88.83;99618.94;5038119;28;20056;-71
2022/01/20 11:07:16;;;;;;;12.73;4.00;;;;;;;4.09;88.79;99594.72;5046945;28;20033;-71
2022/01/20 11:09:44;;;;;;;10.52;2.63;;;;;;;4.31;85.08;99598.91;5038553;28;20033;-72
2022/01/20 11:12:15;;;;;;;10.57;2.25;;;;;;;4.41;84.65;99593.53;5051029;28;20020;-71
2022/01/20 11:14:43;;;;;;;8.57;2.95;;;;;;;4.69;83.22;99591.75;5046746;28;20037;-69
2022/01/20 11:17:16;;;;;;;10.07;2.83;;;;;;;4.82;83.10;99590.44;5058433;28;20021;-70
2022/01/20 11:19:42;;;;;;;13.85;3.45;;;;;;;5.06;81.26;99564.94;5042662;28;20402;-73
2022/01/20 11:22:13;;;;;;;8.55;2.45;;;;;;;5.34;77.58;99575.63;5053315;28;20021;-71
2022/01/20 11:24:40;;;;;;;9.80;2.40;;;;;;;5.34;78.33;99583.69;5048083;28;20029;-70
2022/01/20 11:27:07;;;;;;;6.95;2.30;;;;;;;4.84;80.30;99584.91;5042398;28;20044;-70
2022/01/20 11:29:50;;;;;;;9.02;2.65;;;;;;;4.66;81.57;99578.63;5050307;28;20032;-70
2022/01/20 11:32:24;;;;;;;9.90;2.58;;;;;;;4.53;84.36;99587.88;5042561;28;20123;-69
2022/01/20 11:35:18;;;;;;;8.27;2.90;;;;;;;4.35;84.91;99586.94;5036813;28;20038;-74
2022/01/20 11:37:55;;;;;;;10.43;2.38;;;;;;;3.95;86.83;99578.06;5037770;28;20041;-73
2022/01/20 11:40:23;;;;;;;9.50;2.63;;;;;;;3.91;88.94;99597.25;5041868;28;20025;-72
2022/01/20 11:42:59;;;;;;;9.68;2.85;;;;;;;3.58;91.60;99585.13;5041167;28;20510;-72
2022/01/20 11:45:34;;;;;;;7.32;2.75;;;;;;;3.10;94.08;99551.97;5031211;28;20152;-73
2022/01/20 11:48:12;;;;;;;7.50;2.72;;;;;;;2.96;97.87;99589.75;5042185;28;20104;-73
2022/01/20 11:50:37;;;;;;;5.18;2.70;;;;;;;2.79;100.00;99594.75;5079993;28;20021;-73
2022/01/20 11:53:18;;;;;;;11.85;2.60;;;;;;;2.56;100.00;99615.47;5046514;28;20040;-73
2022/01/20 11:55:46;;;;;;;7.40;2.72;;;;;;;2.51;100.00;99592.81;5047555;28;20036;-73
2022/01/20 11:58:14;;;;;;;6.47;1.88;;;;;;;2.82;100.00;99599.00;5033009;28;20032;-75
2022/01/20 12:00:40;;;;;;;6.38;2.15;;;;;;;2.97;98.94;99576.28;5046131;28;20063;-74
2022/01/20 12:03:13;;;;;;;5.65;1.90;;;;;;;3.32;95.73;99563.41;5045264;28;20032;-76
2022/01/20 12:05:38;;;;;;;5.43;2.30;;;;;;;3.58;95.84;99583.28;5041762;28;20048;-74
2022/01/20 12:08:18;;;;;;;7.68;2.45;;;;;;;3.67;96.09;99584.31;5049162;28;20063;-73
2022/01/20 12:10:56;;;;;;;;;;;;;;;3.61;95.72;99587.50;5047401;28;20032;-72
2022/01/20 12:13:21;;;;;;;5.22;1.70;;;;;;;3.59;93.00;99598.38;5030215;28;20378;-73
2022/01/20 12:15:49;;;;;;;6.18;1.77;;;;;;;3.59;94.29;99587.66;5030707;28;20068;-74
2022/01/20 12:18:15;;;;;;;6.47;1.55;;;;;;;3.47;94.10;99568.22;5031003;28;20056;-74
2022/01/20 12:20:40;;;;;;;7.68;2.30;;;;;;;3.45;94.61;99575.53;5040185;28;20045;-74
2022/01/20 12:23:05;;;;;;;10.77;2.17;;;;;;;3.46;93.86;99587.94;5062643;22;20557;-74
2022/01/20 12:25:33;;;;;;;10.50;2.30;;;;;;;3.55;95.31;99593.44;5011402;28;20034;-77
2022/01/20 12:28:07;;;;;;;7.85;2.15;;;;;;;3.63;96.12;99605.13;5008311;28;20487;-72
2022/01/20 12:30:34;;;;;;;7.07;2.00;;;;;;;3.60;96.11;99608.06;5008345;28;20065;-74
2022/01/20 12:33:11;;;;;;;6.95;2.10;;;;;;;3.56;96.17;99600.47;5010863;28;20542;-75
2022/01/20 12:35:42;;;;;;;11.95;2.95;;;;;;;3.43;95.35;99592.69;5000593;28;20022;-76
2022/01/20 12:38:15;;;;;;;6.20;1.65;;;;;;;3.42;95.02;99596.38;4988424;28;20031;-73
2022/01/20 12:40:41;;;;;;;5.72;1.63;;;;;;;3.31;94.92;99599.16;5006500;28;20097;-75